createdAt,value
2017-10-13T00:00:10.860Z,101805.30
2017-10-13T00:02:46.011Z,101811.23
2017-10-13T00:05:20.769Z,101810.61
2017-10-13T00:07:55.902Z,101807.45
2017-10-13T00:10:30.700Z,101810.45
2017-10-13T00:13:05.937Z,101814.80
2017-10-13T00:15:40.986Z,101808.91
2017-10-13T00:18:15.917Z,101813.40
2017-10-13T00:20:50.989Z,101816.43
2017-10-13T00:23:25.901Z,101811.30
2017-10-13T00:26:01.225Z,101819.02
2017-10-13T00:28:35.891Z,101814.94
2017-10-13T00:31:10.716Z,101820.95
2017-10-13T00:33:46.085Z,101825.36
2017-10-13T00:36:20.745Z,101830.92
2017-10-13T00:38:55.998Z,101823.78
2017-10-13T00:41:31.042Z,101826.20
2017-10-13T00:44:05.406Z,101833.09
2017-10-13T00:46:40.037Z,101826.84
2017-10-13T00:49:14.913Z,101829.59
2017-10-13T00:51:50.258Z,101831.61
2017-10-13T00:54:24.665Z,101829.87
2017-10-13T00:56:59.069Z,101830.06
2017-10-13T00:59:33.197Z,101826.28
2017-10-13T01:02:07.272Z,101822.33
2017-10-13T01:04:42.656Z,101828.98
2017-10-13T01:07:17.601Z,101825.56
2017-10-13T01:09:52.830Z,101831.20
2017-10-13T01:12:27.781Z,101828.66
2017-10-13T01:15:02.817Z,101829.36
2017-10-13T01:17:37.813Z,101831.73
2017-10-13T01:20:12.540Z,101834.20
2017-10-13T01:22:47.301Z,101831.70
2017-10-13T01:25:22.209Z,101830.47
2017-10-13T01:27:57.085Z,101832.28
2017-10-13T01:30:31.721Z,101825.99
2017-10-13T01:33:06.748Z,101834.44
2017-10-13T01:35:41.797Z,101823.91
2017-10-13T01:38:17.140Z,101819.48
2017-10-13T01:40:52.149Z,101811.62
2017-10-13T01:43:27.001Z,101818.03
2017-10-13T01:46:01.765Z,101826.23
2017-10-13T01:48:36.761Z,101819.66
2017-10-13T01:51:11.604Z,101823.91
2017-10-13T01:53:46.714Z,101819.30
2017-10-13T01:56:21.600Z,101808.17
2017-10-13T01:58:56.497Z,101810.41
2017-10-13T02:01:31.484Z,101805.72
2017-10-13T02:04:06.600Z,101810.59
2017-10-13T02:06:40.817Z,101809.82
2017-10-13T02:09:15.287Z,101809.55
2017-10-13T02:11:50.945Z,101811.58
2017-10-13T02:14:25.550Z,101810.80
2017-10-13T02:17:00.748Z,101803.15
2017-10-13T02:19:35.526Z,101808.78
2017-10-13T02:22:10.368Z,101810.52
2017-10-13T02:24:45.769Z,101811.77
2017-10-13T02:27:20.050Z,101816.50
2017-10-13T02:29:55.389Z,101814.38
2017-10-13T02:32:30.453Z,101818.36
2017-10-13T02:35:05.093Z,101821.00
2017-10-13T02:37:40.476Z,101824.72
2017-10-13T02:40:15.001Z,101817.70
2017-10-13T02:42:49.719Z,101823.31
2017-10-13T02:45:24.224Z,101816.75
2017-10-13T02:47:59.149Z,101817.05
2017-10-13T02:50:34.109Z,101818.72
2017-10-13T02:53:09.169Z,101819.95
2017-10-13T02:55:44.068Z,101815.02
2017-10-13T02:58:19.289Z,101832.89
2017-10-13T03:00:54.197Z,101827.89
2017-10-13T03:03:28.921Z,101835.20
2017-10-13T03:06:03.986Z,101836.03
2017-10-13T03:08:39.146Z,101833.23
2017-10-13T03:11:13.911Z,101829.86
2017-10-13T03:13:48.833Z,101834.24
2017-10-13T03:16:23.807Z,101815.58
2017-10-13T03:18:58.590Z,101818.20
2017-10-13T03:21:33.413Z,101823.20
2017-10-13T03:24:07.897Z,101823.75
2017-10-13T03:26:43.106Z,101821.45
2017-10-13T03:29:18.254Z,101820.50
2017-10-13T03:31:53.481Z,101829.27
2017-10-13T03:34:28.581Z,101834.60
2017-10-13T03:37:03.765Z,101825.99
2017-10-13T03:39:38.666Z,101828.12
2017-10-13T03:42:13.669Z,101830.69
2017-10-13T03:44:48.664Z,101833.33
2017-10-13T03:47:24.005Z,101836.02
2017-10-13T03:49:58.589Z,101835.90
2017-10-13T03:52:33.718Z,101842.52
2017-10-13T03:55:08.197Z,101848.52
2017-10-13T03:57:43.697Z,101848.26
2017-10-13T04:00:18.813Z,101839.50
2017-10-13T04:02:53.972Z,101836.53
2017-10-13T04:05:28.949Z,101836.29
2017-10-13T04:08:03.597Z,101834.17
2017-10-13T04:10:38.734Z,101836.27
2017-10-13T04:13:13.779Z,101830.44
2017-10-13T04:15:48.817Z,101838.23
2017-10-13T04:18:23.692Z,101827.18
2017-10-13T04:20:59.068Z,101831.80
2017-10-13T04:23:33.905Z,101842.06
2017-10-13T04:26:09.149Z,101847.86
2017-10-13T04:28:44.084Z,101839.66
2017-10-13T04:31:19.691Z,101839.61
2017-10-13T04:33:54.657Z,101847.70
2017-10-13T04:36:29.269Z,101851.45
2017-10-13T04:39:03.761Z,101855.36
2017-10-13T04:41:38.960Z,101858.86
2017-10-13T04:44:13.386Z,101868.08
2017-10-13T04:46:49.009Z,101868.69
2017-10-13T04:49:24.345Z,101861.28
2017-10-13T04:51:59.584Z,101868.92
2017-10-13T04:54:34.592Z,101861.88
2017-10-13T04:57:09.721Z,101865.19
2017-10-13T04:59:44.755Z,101856.89
2017-10-13T05:02:19.456Z,101858.84
2017-10-13T05:04:54.061Z,101852.55
2017-10-13T05:07:29.313Z,101857.94
2017-10-13T05:10:04.136Z,101854.92
2017-10-13T05:12:38.894Z,101865.88
2017-10-13T05:15:13.657Z,101864.08
2017-10-13T05:17:48.720Z,101866.16
2017-10-13T05:20:23.481Z,101864.73
2017-10-13T05:22:58.081Z,101866.38
2017-10-13T05:25:32.489Z,101867.61
2017-10-13T05:28:07.308Z,101873.00
2017-10-13T05:30:42.460Z,101873.45
2017-10-13T05:33:17.653Z,101881.59
2017-10-13T05:35:52.277Z,101875.86
2017-10-13T05:38:27.554Z,101881.15
2017-10-13T05:41:02.829Z,101879.18
2017-10-13T05:43:37.529Z,101884.63
2017-10-13T05:46:12.192Z,101868.78
2017-10-13T05:48:46.840Z,101869.17
2017-10-13T05:51:21.717Z,101866.98
2017-10-13T05:53:56.889Z,101861.94
2017-10-13T05:56:31.977Z,101868.00
2017-10-13T05:59:06.949Z,101865.02
2017-10-13T06:01:41.781Z,101874.57
2017-10-13T06:04:16.580Z,101868.89
2017-10-13T06:06:51.287Z,101880.42
2017-10-13T06:09:26.489Z,101880.58
2017-10-13T06:12:00.902Z,101881.20
2017-10-13T06:14:35.129Z,101888.83
2017-10-13T06:17:09.629Z,101882.83
2017-10-13T06:19:44.736Z,101894.25
2017-10-13T06:22:19.911Z,101889.97
2017-10-13T06:24:54.658Z,101890.02
2017-10-13T06:27:29.845Z,101901.43
2017-10-13T06:30:05.013Z,101891.08
2017-10-13T06:32:39.741Z,101887.27
2017-10-13T06:35:14.729Z,101892.15
2017-10-13T06:37:49.370Z,101893.05
2017-10-13T06:40:23.776Z,101887.66
2017-10-13T06:42:58.825Z,101890.22
2017-10-13T06:45:33.261Z,101889.26
2017-10-13T06:48:08.197Z,101882.61
2017-10-13T06:50:43.169Z,101879.19
2017-10-13T06:53:17.790Z,101883.94
2017-10-13T06:55:52.246Z,101892.19
2017-10-13T06:58:26.916Z,101896.62
2017-10-13T07:01:01.845Z,101899.59
2017-10-13T07:03:36.829Z,101892.44
2017-10-13T07:06:12.697Z,101901.59
2017-10-13T07:08:47.901Z,101901.36
2017-10-13T07:11:22.568Z,101893.22
2017-10-13T07:13:56.641Z,101900.38
2017-10-13T07:16:31.798Z,101903.34
2017-10-13T07:19:06.784Z,101907.83
2017-10-13T07:21:41.181Z,101908.99
2017-10-13T07:24:15.981Z,101902.86
2017-10-13T07:26:50.829Z,101905.42
2017-10-13T07:29:25.125Z,101899.66
2017-10-13T07:32:00.257Z,101903.39
2017-10-13T07:34:35.277Z,101904.11
2017-10-13T07:37:09.927Z,101919.41
2017-10-13T07:39:44.873Z,101912.69
2017-10-13T07:42:20.086Z,101919.27
2017-10-13T07:44:55.066Z,101919.62
2017-10-13T07:47:29.690Z,101930.68
2017-10-13T07:50:04.289Z,101928.55
2017-10-13T07:52:39.522Z,101934.36
2017-10-13T07:55:14.623Z,101944.78
2017-10-13T07:57:49.448Z,101933.00
2017-10-13T08:00:24.499Z,101938.89
2017-10-13T08:02:59.630Z,101939.16
2017-10-13T08:05:34.505Z,101930.60
2017-10-13T08:08:09.290Z,101937.50
2017-10-13T08:10:44.053Z,101938.80
2017-10-13T08:13:19.469Z,101927.73
2017-10-13T08:15:53.981Z,101934.68
2017-10-13T08:18:29.700Z,101934.88
2017-10-13T08:21:04.273Z,101934.36
2017-10-13T08:23:38.758Z,101930.28
2017-10-13T08:26:13.733Z,101936.28
2017-10-13T08:28:48.614Z,101930.08
2017-10-13T08:31:22.936Z,101927.19
2017-10-13T08:33:58.270Z,101923.26
2017-10-13T08:36:33.037Z,101921.17
2017-10-13T08:39:08.002Z,101918.13
2017-10-13T08:41:43.349Z,101924.25
2017-10-13T08:44:18.457Z,101920.90
2017-10-13T08:46:53.176Z,101925.09
2017-10-13T08:49:28.314Z,101921.66
2017-10-13T08:52:03.588Z,101921.61
2017-10-13T08:54:38.618Z,101924.16
2017-10-13T08:57:13.709Z,101926.66
2017-10-13T08:59:48.741Z,101913.92
2017-10-13T09:02:23.384Z,101912.41
2017-10-13T09:04:58.034Z,101905.17
2017-10-13T09:12:42.961Z,101911.87
2017-10-13T09:15:17.993Z,101906.87
2017-10-13T09:17:53.053Z,101917.48
2017-10-13T09:20:27.852Z,101920.47
2017-10-13T09:23:07.699Z,101914.92
2017-10-13T09:25:43.109Z,101915.27
2017-10-13T09:28:17.441Z,101916.47
2017-10-13T09:30:52.246Z,101917.77
2017-10-13T09:33:27.459Z,101917.76
2017-10-13T09:36:01.982Z,101917.17
2017-10-13T09:38:38.193Z,101924.25
2017-10-13T09:41:13.300Z,101932.66
2017-10-13T09:43:48.233Z,101934.23
2017-10-13T09:46:23.161Z,101935.20
2017-10-13T09:48:57.717Z,101935.20
2017-10-13T09:51:32.476Z,101931.08
2017-10-13T09:54:07.850Z,101936.11
2017-10-13T09:56:43.177Z,101931.73
2017-10-13T09:59:18.422Z,101929.17
2017-10-13T10:01:53.386Z,101937.33
2017-10-13T10:04:28.361Z,101930.28
2017-10-13T10:07:02.954Z,101930.89
2017-10-13T10:09:37.994Z,101934.20
2017-10-13T10:12:12.961Z,101936.81
2017-10-13T10:14:48.098Z,101930.89
2017-10-13T10:17:23.053Z,101945.61
2017-10-13T10:19:57.878Z,101938.97
2017-10-13T10:22:32.863Z,101936.13
2017-10-13T10:25:08.805Z,101946.66
2017-10-13T10:27:43.416Z,101943.80
2017-10-13T10:30:18.551Z,101945.76
2017-10-13T10:32:53.678Z,101939.72
2017-10-13T10:35:27.929Z,101935.11
2017-10-13T10:38:02.938Z,101947.97
2017-10-13T10:40:38.133Z,101945.09
2017-10-13T10:43:13.292Z,101952.27
2017-10-13T10:45:48.325Z,101955.09
2017-10-13T10:48:23.173Z,101952.94
2017-10-13T10:50:57.970Z,101957.62
2017-10-13T10:53:32.313Z,101950.14
2017-10-13T10:56:07.348Z,101947.17
2017-10-13T10:58:42.294Z,101948.53
2017-10-13T11:01:17.026Z,101945.78
2017-10-13T11:03:51.764Z,101934.16
2017-10-13T11:06:26.970Z,101926.92
2017-10-13T11:09:02.145Z,101927.63
2017-10-13T11:11:36.997Z,101931.53
2017-10-13T11:14:11.874Z,101932.16
2017-10-13T11:16:47.009Z,101931.35
2017-10-13T11:19:21.838Z,101930.18
2017-10-13T11:21:56.818Z,101936.32
2017-10-13T11:24:31.729Z,101930.92
2017-10-13T11:27:06.545Z,101936.64
2017-10-13T11:29:41.612Z,101933.73
2017-10-13T11:32:16.625Z,101934.79
2017-10-13T11:34:51.672Z,101934.23
2017-10-13T11:37:26.674Z,101937.45
2017-10-13T11:40:01.706Z,101941.55
2017-10-13T11:42:36.114Z,101945.19
2017-10-13T11:45:11.456Z,101945.57
2017-10-13T11:47:46.546Z,101940.97
2017-10-13T11:50:21.509Z,101948.48
2017-10-13T11:52:56.242Z,101940.12
2017-10-13T11:55:30.458Z,101949.75
2017-10-13T11:58:05.265Z,101943.75
2017-10-13T12:00:39.682Z,101938.30
2017-10-13T12:03:14.741Z,101943.20
2017-10-13T12:05:49.866Z,101933.41
2017-10-13T12:08:24.893Z,101936.34
2017-10-13T12:10:59.840Z,101932.16
2017-10-13T12:13:34.953Z,101938.16
2017-10-13T12:16:10.188Z,101939.42
2017-10-13T12:18:45.281Z,101938.92
2017-10-13T12:21:20.110Z,101936.12
2017-10-13T12:23:55.236Z,101941.96
2017-10-13T12:26:30.241Z,101942.69
2017-10-13T12:29:05.277Z,101940.08
2017-10-13T12:31:40.426Z,101936.98
2017-10-13T12:34:15.181Z,101933.70
2017-10-13T12:36:49.773Z,101926.76
2017-10-13T12:39:24.666Z,101932.79
2017-10-13T12:41:59.140Z,101932.19
2017-10-13T12:44:34.051Z,101934.59
2017-10-13T12:47:08.904Z,101933.16
2017-10-13T12:49:44.232Z,101940.82
2017-10-13T12:52:19.183Z,101936.92
2017-10-13T12:54:53.801Z,101934.19
2017-10-13T12:57:28.445Z,101929.54
2017-10-13T13:00:03.367Z,101929.61
2017-10-13T13:02:38.491Z,101919.24
2017-10-13T13:05:13.553Z,101914.61
2017-10-13T13:07:48.601Z,101918.92
2017-10-13T13:10:23.629Z,101914.98
2017-10-13T13:12:58.576Z,101914.41
2017-10-13T13:15:32.933Z,101915.05
2017-10-13T13:18:07.990Z,101919.00
2017-10-13T13:20:43.021Z,101922.52
2017-10-13T13:23:18.189Z,101919.67
2017-10-13T13:25:52.948Z,101908.37
2017-10-13T13:28:28.157Z,101912.03
2017-10-13T13:31:03.381Z,101912.93
2017-10-13T13:33:38.109Z,101902.16
2017-10-13T13:36:13.217Z,101911.09
2017-10-13T13:38:48.013Z,101914.86
2017-10-13T13:41:22.770Z,101910.27
2017-10-13T13:43:57.610Z,101910.55
2017-10-13T13:46:32.316Z,101905.80
2017-10-13T13:49:07.337Z,101905.45
2017-10-13T13:51:42.463Z,101909.60
2017-10-13T13:54:17.248Z,101905.58
2017-10-13T13:56:52.044Z,101900.86
2017-10-13T13:59:27.041Z,101904.86
2017-10-13T14:02:02.173Z,101902.50
2017-10-13T14:04:36.597Z,101911.87
2017-10-13T14:07:11.509Z,101903.57
2017-10-13T14:09:46.320Z,101900.49
2017-10-13T14:12:21.233Z,101898.88
2017-10-13T14:14:56.081Z,101902.81
2017-10-13T14:17:31.045Z,101893.83
2017-10-13T14:20:05.918Z,101889.52
2017-10-13T14:22:40.836Z,101887.78
2017-10-13T14:25:15.706Z,101891.41
2017-10-13T14:27:50.658Z,101895.26
2017-10-13T14:30:25.617Z,101893.93
2017-10-13T14:33:00.613Z,101895.36
2017-10-13T14:35:35.465Z,101880.41
2017-10-13T14:38:10.451Z,101884.37
2017-10-13T14:40:45.366Z,101883.58
2017-10-13T14:43:23.190Z,101889.26
2017-10-13T14:45:57.854Z,101885.80
2017-10-13T14:48:32.837Z,101886.17
2017-10-13T14:51:07.348Z,101884.17
2017-10-13T14:53:42.113Z,101875.70
2017-10-13T14:56:17.356Z,101890.17
2017-10-13T14:58:52.472Z,101896.23
2017-10-13T15:01:27.313Z,101888.01
2017-10-13T15:04:02.481Z,101893.15
2017-10-13T15:06:37.693Z,101891.08
2017-10-13T15:09:12.301Z,101892.33
2017-10-13T15:11:46.741Z,101885.17
2017-10-13T15:14:21.614Z,101891.30
2017-10-13T15:16:56.592Z,101885.70
2017-10-13T15:19:31.661Z,101883.91
2017-10-13T15:22:07.053Z,101888.72
2017-10-13T15:24:47.601Z,101889.08
2017-10-13T15:27:27.714Z,101889.42
2017-10-13T15:30:08.216Z,101902.70
2017-10-13T15:32:48.125Z,101901.02
2017-10-13T15:35:28.289Z,101910.39
2017-10-13T15:38:08.697Z,101910.28
2017-10-13T15:40:48.735Z,101917.38
2017-10-13T15:43:29.458Z,101920.08
2017-10-13T15:46:09.624Z,101920.92
2017-10-13T15:48:44.673Z,101918.23
2017-10-13T15:51:24.857Z,101923.14
2017-10-13T15:54:00.029Z,101917.42
2017-10-13T15:56:34.993Z,101927.88
2017-10-13T15:59:09.773Z,101923.84
2017-10-13T16:01:44.677Z,101927.07
2017-10-13T16:04:19.931Z,101930.59
2017-10-13T16:06:54.660Z,101923.27
2017-10-13T16:09:29.708Z,101932.67
2017-10-13T16:12:04.977Z,101931.34
2017-10-13T16:14:40.149Z,101937.21
2017-10-13T16:17:15.088Z,101938.37
2017-10-13T16:19:50.225Z,101936.64
2017-10-13T16:22:25.064Z,101933.83
2017-10-13T16:25:00.217Z,101929.61
2017-10-13T16:27:35.205Z,101935.00
2017-10-13T16:30:10.320Z,101930.33
2017-10-13T16:32:45.493Z,101931.98
2017-10-13T16:35:20.524Z,101930.23
2017-10-13T16:37:55.473Z,101940.66
2017-10-13T16:40:30.461Z,101938.81
2017-10-13T16:43:05.381Z,101932.19
2017-10-13T16:45:40.576Z,101932.97
2017-10-13T16:48:15.570Z,101922.63
2017-10-13T16:50:50.440Z,101925.70
2017-10-13T16:53:25.230Z,101924.26
2017-10-13T16:55:59.517Z,101928.63
2017-10-13T16:58:34.181Z,101925.04
2017-10-13T17:01:09.508Z,101931.84
2017-10-13T17:03:44.746Z,101931.01
2017-10-13T17:06:18.801Z,101937.39
2017-10-13T17:08:53.275Z,101934.22
2017-10-13T17:11:27.741Z,101946.05
2017-10-13T17:14:02.873Z,101940.02
2017-10-13T17:16:37.965Z,101940.45
2017-10-13T17:19:12.853Z,101947.19
2017-10-13T17:21:47.788Z,101942.17
2017-10-13T17:24:22.834Z,101939.64
2017-10-13T17:26:58.130Z,101947.27
2017-10-13T17:29:33.297Z,101935.97
2017-10-13T17:32:08.301Z,101944.92
2017-10-13T17:34:43.271Z,101938.64
2017-10-13T17:37:18.320Z,101947.05
2017-10-13T17:39:53.038Z,101942.17
2017-10-13T17:42:27.652Z,101944.61
2017-10-13T17:45:02.562Z,101948.20
2017-10-13T17:47:37.610Z,101944.73
2017-10-13T17:50:12.449Z,101954.35
2017-10-13T17:52:47.024Z,101951.14
2017-10-13T17:55:22.308Z,101953.03
2017-10-13T17:57:57.341Z,101948.53
2017-10-13T18:00:32.165Z,101948.23
2017-10-13T18:03:06.993Z,101949.72
2017-10-13T18:05:42.182Z,101956.73
2017-10-13T18:08:16.781Z,101950.58
2017-10-13T18:10:51.406Z,101948.30
2017-10-13T18:13:26.688Z,101955.08
2017-10-13T18:16:01.562Z,101952.87
2017-10-13T18:18:36.798Z,101952.61
2017-10-13T18:21:11.945Z,101953.05
2017-10-13T18:23:47.278Z,101955.78
2017-10-13T18:26:22.498Z,101953.13
2017-10-13T18:28:57.761Z,101954.60
2017-10-13T18:31:32.474Z,101955.45
2017-10-13T18:34:06.757Z,101951.77
2017-10-13T18:36:41.581Z,101956.81
2017-10-13T18:39:16.102Z,101946.68
2017-10-13T18:41:50.925Z,101953.50
2017-10-13T18:44:26.257Z,101957.70
2017-10-13T18:47:01.861Z,101955.92
2017-10-13T18:49:36.911Z,101954.50
2017-10-13T18:52:11.794Z,101945.58
2017-10-13T18:54:46.804Z,101950.73
2017-10-13T18:57:21.780Z,101952.93
2017-10-13T18:59:56.777Z,101948.08
2017-10-13T19:02:31.091Z,101951.47
2017-10-13T19:05:06.241Z,101957.20
2017-10-13T19:07:41.281Z,101953.77
2017-10-13T19:10:16.409Z,101952.10
2017-10-13T19:12:51.473Z,101956.58
2017-10-13T19:15:26.151Z,101961.97
2017-10-13T19:18:01.777Z,101954.42
2017-10-13T19:20:36.614Z,101953.73
2017-10-13T19:23:11.706Z,101957.77
2017-10-13T19:25:46.637Z,101953.94
2017-10-13T19:28:22.033Z,101944.84
2017-10-13T19:30:56.593Z,101948.08
2017-10-13T19:33:31.609Z,101943.34
2017-10-13T19:36:08.443Z,101941.08
2017-10-13T19:38:43.734Z,101945.82
2017-10-13T19:41:18.864Z,101943.80
2017-10-13T19:43:54.006Z,101952.03
2017-10-13T19:46:29.045Z,101956.78
2017-10-13T19:49:03.985Z,101956.39
2017-10-13T19:51:39.481Z,101950.58
2017-10-13T19:54:14.241Z,101948.72
2017-10-13T19:56:49.089Z,101949.30
2017-10-13T19:59:24.125Z,101952.63
2017-10-13T20:01:58.699Z,101952.78
2017-10-13T20:04:33.719Z,101948.98
2017-10-13T20:07:08.866Z,101950.92
2017-10-13T20:09:43.302Z,101957.45
2017-10-13T20:12:17.621Z,101960.62
2017-10-13T20:14:52.349Z,101964.56
2017-10-13T20:17:27.444Z,101964.63
2017-10-13T20:20:02.257Z,101970.68
2017-10-13T20:22:37.301Z,101966.34
2017-10-13T20:25:11.845Z,101965.59
2017-10-13T20:27:46.897Z,101966.67
2017-10-13T20:30:21.729Z,101965.97
2017-10-13T20:32:57.037Z,101971.99
2017-10-13T20:35:32.170Z,101972.74
2017-10-13T20:38:07.281Z,101969.52
2017-10-13T20:40:42.272Z,101964.45
2017-10-13T20:43:16.996Z,101972.16
2017-10-13T20:45:51.721Z,101977.67
2017-10-13T20:48:26.929Z,101977.84
2017-10-13T20:51:01.966Z,101968.93
2017-10-13T20:53:37.241Z,101968.02
2017-10-13T20:56:12.062Z,101967.40
2017-10-13T20:58:47.392Z,101961.99
2017-10-13T21:01:22.233Z,101966.48
2017-10-13T21:03:57.358Z,101967.88
2017-10-13T21:06:32.565Z,101971.11
2017-10-13T21:09:07.584Z,101965.16
2017-10-13T21:11:42.016Z,101965.67
2017-10-13T21:14:17.040Z,101973.83
2017-10-13T21:16:51.973Z,101973.93
2017-10-13T21:19:27.116Z,101970.22
2017-10-13T21:22:01.684Z,101970.36
2017-10-13T21:24:36.772Z,101979.98
2017-10-13T21:27:11.712Z,101976.27
2017-10-13T21:29:47.086Z,101973.92
2017-10-13T21:32:22.570Z,101973.00
2017-10-13T21:34:57.478Z,101981.34
2017-10-13T21:37:32.405Z,101977.26
2017-10-13T21:40:07.449Z,101975.90
2017-10-13T21:42:42.361Z,101967.73
2017-10-13T21:45:17.016Z,101981.10
2017-10-13T21:47:51.979Z,101974.95
2017-10-13T21:50:26.961Z,101984.36
2017-10-13T21:53:02.130Z,101978.14
2017-10-13T21:55:37.301Z,101976.61
2017-10-13T21:58:12.609Z,101975.96
2017-10-13T22:00:47.918Z,101975.59
2017-10-13T22:03:23.038Z,101970.45
2017-10-13T22:05:58.440Z,101967.66
2017-10-13T22:08:33.182Z,101972.98
2017-10-13T22:11:07.945Z,101970.44
2017-10-13T22:13:42.854Z,101968.64
2017-10-13T22:16:17.835Z,101976.59
2017-10-13T22:18:52.814Z,101977.38
2017-10-13T22:21:27.204Z,101976.02
2017-10-13T22:24:02.041Z,101971.80
2017-10-13T22:26:36.733Z,101970.17
2017-10-13T22:29:12.073Z,101971.81
2017-10-13T22:31:47.110Z,101966.25
2017-10-13T22:34:21.850Z,101975.02
2017-10-13T22:36:57.129Z,101973.25
2017-10-13T22:39:32.185Z,101977.20
2017-10-13T22:42:06.713Z,101977.07
2017-10-13T22:44:41.868Z,101977.06
2017-10-13T22:47:16.888Z,101974.84
2017-10-13T22:49:52.105Z,101970.39
2017-10-13T22:52:28.841Z,101976.21
2017-10-13T22:55:03.442Z,101976.81
2017-10-13T22:57:37.818Z,101979.94
2017-10-13T23:00:12.289Z,101977.05
2017-10-13T23:02:47.493Z,101976.35
2017-10-13T23:05:22.786Z,101975.75
2017-10-13T23:07:57.674Z,101978.03
2017-10-13T23:10:32.806Z,101974.02
2017-10-13T23:13:08.229Z,101976.53
2017-10-13T23:15:43.049Z,101970.48
2017-10-13T23:18:18.070Z,101968.34
2017-10-13T23:20:53.209Z,101963.51
2017-10-13T23:23:27.949Z,101963.11
2017-10-13T23:26:02.870Z,101966.76
2017-10-13T23:28:38.628Z,101966.84
2017-10-13T23:31:13.157Z,101963.66
2017-10-13T23:33:48.410Z,101968.86
2017-10-13T23:36:23.319Z,101968.72
2017-10-13T23:38:58.572Z,101970.77
2017-10-13T23:41:34.208Z,101968.57
2017-10-13T23:44:09.421Z,101969.72
2017-10-13T23:46:44.338Z,101969.27
2017-10-13T23:49:19.294Z,101969.71
2017-10-13T23:51:54.221Z,101967.91
2017-10-13T23:54:29.330Z,101968.27
2017-10-13T23:57:04.249Z,101961.88
2017-10-13T23:59:38.804Z,101968.70
